createdAt,value
2023-05-16T00:00:32.535Z,0.00
2023-05-16T00:01:32.878Z,0.00
2023-05-16T00:02:33.412Z,0.00
2023-05-16T00:03:33.534Z,0.00
2023-05-16T00:04:33.844Z,0.00
2023-05-16T00:05:34.008Z,0.00
2023-05-16T00:06:34.328Z,0.00
2023-05-16T00:07:34.663Z,0.00
2023-05-16T00:08:34.960Z,0.00
2023-05-16T00:09:35.267Z,0.00
2023-05-16T00:10:35.552Z,0.00
2023-05-16T00:11:35.939Z,0.00
2023-05-16T00:12:36.262Z,0.00
2023-05-16T00:13:36.590Z,0.00
2023-05-16T00:14:36.857Z,0.00
2023-05-16T00:15:37.221Z,0.00
2023-05-16T00:16:37.537Z,0.00
2023-05-16T00:17:37.734Z,0.00
2023-05-16T00:18:38.033Z,0.00
2023-05-16T00:19:38.381Z,0.00
2023-05-16T00:20:38.705Z,0.00
2023-05-16T00:21:39.014Z,0.00
2023-05-16T00:22:39.349Z,0.00
2023-05-16T00:23:39.639Z,0.00
2023-05-16T00:24:39.940Z,0.00
2023-05-16T00:25:40.311Z,0.00
2023-05-16T00:26:40.617Z,0.00
2023-05-16T00:27:40.948Z,0.00
2023-05-16T00:28:41.248Z,0.00
2023-05-16T00:29:41.573Z,0.00
2023-05-16T00:30:41.889Z,0.00
2023-05-16T00:31:42.222Z,0.00
2023-05-16T00:32:42.595Z,0.00
2023-05-16T00:33:42.784Z,0.00
2023-05-16T00:34:43.236Z,0.00
2023-05-16T00:35:43.467Z,0.00
2023-05-16T00:36:43.626Z,0.00
2023-05-16T00:37:43.942Z,0.00
2023-05-16T00:38:44.262Z,0.00
2023-05-16T00:39:44.612Z,0.00
2023-05-16T00:40:44.846Z,0.00
2023-05-16T00:41:45.134Z,0.00
2023-05-16T00:42:45.533Z,0.00
2023-05-16T00:43:45.733Z,0.00
2023-05-16T00:44:46.052Z,0.00
2023-05-16T00:45:46.480Z,0.00
2023-05-16T00:46:46.782Z,0.00
2023-05-16T00:47:47.005Z,0.00
2023-05-16T00:48:47.284Z,0.00
2023-05-16T00:49:47.621Z,0.00
2023-05-16T00:50:47.938Z,0.00
2023-05-16T00:51:48.247Z,0.00
2023-05-16T00:52:48.568Z,0.00
2023-05-16T00:53:48.910Z,0.00
2023-05-16T00:54:49.246Z,0.00
2023-05-16T00:55:49.541Z,0.00
2023-05-16T00:56:49.862Z,0.00
2023-05-16T00:57:50.188Z,0.00
2023-05-16T00:58:50.518Z,0.00
2023-05-16T00:59:50.836Z,0.00
2023-05-16T01:00:51.128Z,0.00
2023-05-16T01:01:51.614Z,0.00
2023-05-16T01:02:51.845Z,0.00
2023-05-16T01:03:52.121Z,0.00
2023-05-16T01:04:52.223Z,0.00
2023-05-16T01:05:52.533Z,0.00
2023-05-16T01:06:52.848Z,0.00
2023-05-16T01:07:53.171Z,0.00
2023-05-16T01:08:53.516Z,0.00
2023-05-16T01:09:53.801Z,0.00
2023-05-16T01:10:54.095Z,0.00
2023-05-16T01:11:54.501Z,0.00
2023-05-16T01:12:54.816Z,0.00
2023-05-16T01:13:55.133Z,0.00
2023-05-16T01:14:55.432Z,0.00
2023-05-16T01:15:55.813Z,0.00
2023-05-16T01:16:56.091Z,0.00
2023-05-16T01:17:56.473Z,0.00
2023-05-16T01:18:56.797Z,0.00
2023-05-16T01:19:57.123Z,0.00
2023-05-16T01:20:57.428Z,0.00
2023-05-16T01:21:57.742Z,0.00
2023-05-16T01:22:58.085Z,0.00
2023-05-16T01:23:58.402Z,0.00
2023-05-16T01:24:58.736Z,0.00
2023-05-16T01:25:59.048Z,0.00
2023-05-16T01:26:59.388Z,0.00
2023-05-16T01:27:59.698Z,0.00
2023-05-16T01:29:00.025Z,0.00
2023-05-16T01:30:00.315Z,0.00
2023-05-16T01:31:00.710Z,0.00
2023-05-16T01:32:01.045Z,0.00
2023-05-16T01:33:01.250Z,0.00
2023-05-16T01:34:01.578Z,0.00
2023-05-16T01:35:01.882Z,0.00
2023-05-16T01:36:02.187Z,0.00
2023-05-16T01:37:02.483Z,0.00
2023-05-16T01:38:02.799Z,0.00
2023-05-16T01:39:03.102Z,0.00
2023-05-16T01:40:03.437Z,0.00
2023-05-16T01:41:03.781Z,0.00
2023-05-16T01:42:04.061Z,0.00
2023-05-16T01:43:04.370Z,0.00
2023-05-16T01:44:04.664Z,0.00
2023-05-16T01:45:04.994Z,0.00
2023-05-16T01:46:05.320Z,0.00
2023-05-16T01:47:05.920Z,0.00
2023-05-16T01:48:06.035Z,0.00
2023-05-16T01:49:06.192Z,0.00
2023-05-16T01:50:06.553Z,0.00
2023-05-16T01:51:06.915Z,0.00
2023-05-16T01:52:07.212Z,0.00
2023-05-16T01:53:08.787Z,0.00
2023-05-16T01:54:07.773Z,0.00
2023-05-16T01:55:08.102Z,0.00
2023-05-16T01:56:08.392Z,0.00
2023-05-16T01:57:08.695Z,0.00
2023-05-16T01:58:08.999Z,0.00
2023-05-16T01:59:09.334Z,0.00
2023-05-16T02:00:09.681Z,0.00
2023-05-16T02:01:10.067Z,0.00
2023-05-16T02:02:10.244Z,0.00
2023-05-16T02:03:10.665Z,0.00
2023-05-16T02:04:11.104Z,0.00
2023-05-16T02:05:11.140Z,0.00
2023-05-16T02:06:11.464Z,0.00
2023-05-16T02:07:11.794Z,0.00
2023-05-16T02:08:12.105Z,0.00
2023-05-16T02:09:12.497Z,0.00
2023-05-16T02:10:12.771Z,0.00
2023-05-16T02:11:13.073Z,16.00
2023-05-16T02:12:13.505Z,20.00
2023-05-16T02:13:13.794Z,16.00
2023-05-16T02:14:13.981Z,16.00
2023-05-16T02:15:14.266Z,20.00
2023-05-16T02:16:14.687Z,0.00
2023-05-16T02:17:14.852Z,0.00
2023-05-16T02:18:15.205Z,0.00
2023-05-16T02:19:15.582Z,0.00
2023-05-16T02:20:15.806Z,0.00
2023-05-16T02:21:16.113Z,0.00
2023-05-16T02:22:16.446Z,0.00
2023-05-16T02:23:16.749Z,0.00
2023-05-16T02:24:17.114Z,4.00
2023-05-16T02:25:17.402Z,4.00
2023-05-16T02:26:17.757Z,4.00
2023-05-16T02:27:18.091Z,0.00
2023-05-16T02:28:18.312Z,4.00
2023-05-16T02:29:18.613Z,4.00
2023-05-16T02:30:18.956Z,4.00
2023-05-16T02:31:19.308Z,4.00
2023-05-16T02:32:19.624Z,4.00
2023-05-16T02:33:19.908Z,8.00
2023-05-16T02:34:20.206Z,4.00
2023-05-16T02:35:20.543Z,8.00
2023-05-16T02:36:20.960Z,8.00
2023-05-16T02:37:21.113Z,8.00
2023-05-16T02:38:21.445Z,12.00
2023-05-16T02:39:21.752Z,12.00
2023-05-16T02:40:22.086Z,12.00
2023-05-16T02:41:22.504Z,12.00
2023-05-16T02:42:22.695Z,16.00
2023-05-16T02:43:23.030Z,16.00
2023-05-16T02:44:23.366Z,20.00
2023-05-16T02:45:23.755Z,24.00
2023-05-16T02:46:24.115Z,28.00
2023-05-16T02:47:24.333Z,32.00
2023-05-16T02:48:24.503Z,32.00
2023-05-16T02:49:24.839Z,36.00
2023-05-16T02:50:25.186Z,40.00
2023-05-16T02:51:25.547Z,44.00
2023-05-16T02:52:25.870Z,52.00
2023-05-16T02:53:26.189Z,56.00
2023-05-16T02:54:26.531Z,64.00
2023-05-16T02:55:26.871Z,64.00
2023-05-16T02:56:27.218Z,76.00
2023-05-16T02:57:27.459Z,80.00
2023-05-16T02:58:27.648Z,92.00
2023-05-16T02:59:27.972Z,100.00
2023-05-16T03:00:28.316Z,104.00
2023-05-16T03:01:29.462Z,116.00
2023-05-16T03:02:29.021Z,128.00
2023-05-16T03:03:29.415Z,136.00
2023-05-16T03:04:29.564Z,152.00
2023-05-16T03:05:30.006Z,164.00
2023-05-16T03:06:30.016Z,180.00
2023-05-16T03:07:30.366Z,192.00
2023-05-16T03:08:30.606Z,208.00
2023-05-16T03:09:30.946Z,224.00
2023-05-16T03:10:31.202Z,244.00
2023-05-16T03:11:31.523Z,260.00
2023-05-16T03:12:31.857Z,280.00
2023-05-16T03:13:32.109Z,296.00
2023-05-16T03:14:32.460Z,312.00
2023-05-16T03:15:32.812Z,320.00
2023-05-16T03:16:33.107Z,324.00
2023-05-16T03:17:33.335Z,324.00
2023-05-16T03:18:33.698Z,344.00
2023-05-16T03:19:34.047Z,336.00
2023-05-16T03:20:34.381Z,368.00
2023-05-16T03:21:34.578Z,376.00
2023-05-16T03:22:34.924Z,396.00
2023-05-16T03:23:35.269Z,396.00
2023-05-16T03:24:35.526Z,368.00
2023-05-16T03:25:35.778Z,392.00
2023-05-16T03:26:35.994Z,416.00
2023-05-16T03:27:36.294Z,464.00
2023-05-16T03:28:36.587Z,516.00
2023-05-16T03:29:36.799Z,640.00
2023-05-16T03:30:37.053Z,664.00
2023-05-16T03:31:37.344Z,668.00
2023-05-16T03:32:37.655Z,644.00
2023-05-16T03:33:38.008Z,664.00
2023-05-16T03:34:38.148Z,684.00
2023-05-16T03:35:38.378Z,636.00
2023-05-16T03:36:38.636Z,724.00
2023-05-16T03:37:38.929Z,736.00
2023-05-16T03:38:39.164Z,768.00
2023-05-16T03:39:39.422Z,868.00
2023-05-16T03:40:39.655Z,892.00
2023-05-16T03:41:39.886Z,912.00
2023-05-16T03:42:40.151Z,904.00
2023-05-16T03:43:40.399Z,932.00
2023-05-16T03:44:40.662Z,1052.00
2023-05-16T03:45:40.955Z,1064.00
2023-05-16T03:46:41.192Z,1000.00
2023-05-16T03:47:41.531Z,1096.00
2023-05-16T03:48:41.759Z,1152.00
2023-05-16T03:49:42.052Z,1276.00
2023-05-16T03:50:42.292Z,1152.00
2023-05-16T03:51:42.619Z,1308.00
2023-05-16T03:52:42.861Z,1472.00
2023-05-16T03:53:43.143Z,1528.00
2023-05-16T03:54:43.373Z,1440.00
2023-05-16T03:55:43.628Z,1352.00
2023-05-16T03:56:43.889Z,1544.00
2023-05-16T03:57:44.180Z,1652.00
2023-05-16T03:58:44.470Z,1604.00
2023-05-16T03:59:44.712Z,1288.00
2023-05-16T04:00:44.963Z,1272.00
2023-05-16T04:01:45.306Z,1292.00
2023-05-16T04:02:45.630Z,1336.00
2023-05-16T04:03:45.771Z,1356.00
2023-05-16T04:04:46.029Z,1384.00
2023-05-16T04:05:46.343Z,1380.00
2023-05-16T04:06:46.600Z,1248.00
2023-05-16T04:07:46.887Z,1208.00
2023-05-16T04:08:47.138Z,1112.00
2023-05-16T04:09:47.409Z,1196.00
2023-05-16T04:10:47.666Z,1180.00
2023-05-16T04:11:47.931Z,1156.00
2023-05-16T04:12:48.191Z,1280.00
2023-05-16T04:13:48.518Z,1232.00
2023-05-16T04:14:48.768Z,1112.00
2023-05-16T04:15:49.046Z,1068.00
2023-05-16T04:16:49.461Z,1212.00
2023-05-16T04:17:49.647Z,1228.00
2023-05-16T04:18:49.919Z,1280.00
2023-05-16T04:19:50.212Z,1180.00
2023-05-16T04:20:50.502Z,1112.00
2023-05-16T04:21:50.732Z,1196.00
2023-05-16T04:22:58.531Z,1184.00
2023-05-16T04:23:51.311Z,1248.00
2023-05-16T04:24:51.554Z,1288.00
2023-05-16T04:25:51.822Z,1376.00
2023-05-16T04:26:52.088Z,1164.00
2023-05-16T04:27:52.332Z,1024.00
2023-05-16T04:28:52.586Z,980.00
2023-05-16T04:29:52.874Z,1020.00
2023-05-16T04:30:53.114Z,1172.00
2023-05-16T04:31:53.538Z,1472.00
2023-05-16T04:32:53.746Z,1848.00
2023-05-16T04:33:54.052Z,1752.00
2023-05-16T04:34:54.311Z,1560.00
2023-05-16T04:35:54.556Z,1596.00
2023-05-16T04:36:54.811Z,1868.00
2023-05-16T04:37:55.086Z,2100.00
2023-05-16T04:38:55.334Z,2640.00
2023-05-16T04:39:55.725Z,2748.00
2023-05-16T04:40:55.841Z,2672.00
2023-05-16T04:41:56.106Z,2380.00
2023-05-16T04:42:56.384Z,2048.00
2023-05-16T04:43:56.656Z,2024.00
2023-05-16T04:44:56.920Z,1892.00
2023-05-16T04:45:57.192Z,1808.00
2023-05-16T04:46:57.667Z,1600.00
2023-05-16T04:48:06.693Z,1500.00
2023-05-16T04:48:57.916Z,1572.00
2023-05-16T04:49:58.219Z,1344.00
2023-05-16T04:50:58.454Z,1584.00
2023-05-16T04:51:58.757Z,1628.00
2023-05-16T04:52:58.980Z,1660.00
2023-05-16T04:53:59.231Z,1704.00
2023-05-16T04:54:59.468Z,1840.00
2023-05-16T04:55:59.840Z,1680.00
2023-05-16T04:56:59.920Z,1744.00
2023-05-16T04:58:00.562Z,1652.00
2023-05-16T04:59:00.767Z,1592.00
2023-05-16T05:00:01.586Z,1764.00
2023-05-16T05:01:03.898Z,1728.00
2023-05-16T05:02:01.859Z,1848.00
2023-05-16T05:03:01.900Z,2088.00
2023-05-16T05:04:01.971Z,2360.00
2023-05-16T05:05:02.273Z,2440.00
2023-05-16T05:06:02.615Z,2488.00
2023-05-16T05:07:02.893Z,2636.00
2023-05-16T05:08:03.123Z,2436.00
2023-05-16T05:09:03.331Z,2208.00
2023-05-16T05:10:03.615Z,2116.00
2023-05-16T05:11:04.001Z,1900.00
2023-05-16T05:12:04.870Z,1808.00
2023-05-16T05:13:04.424Z,1668.00
2023-05-16T05:14:05.300Z,1504.00
2023-05-16T05:15:05.038Z,1436.00
2023-05-16T05:16:05.256Z,1244.00
2023-05-16T05:17:05.487Z,1268.00
2023-05-16T05:18:05.997Z,1400.00
2023-05-16T05:19:06.077Z,1280.00
2023-05-16T05:20:06.405Z,1100.00
2023-05-16T05:21:06.612Z,1100.00
2023-05-16T05:22:06.834Z,1120.00
2023-05-16T05:23:08.114Z,1096.00
2023-05-16T05:24:07.545Z,1152.00
2023-05-16T05:25:07.753Z,1104.00
2023-05-16T05:26:08.122Z,1060.00
2023-05-16T05:27:08.346Z,1088.00
2023-05-16T05:28:08.600Z,1056.00
2023-05-16T05:29:08.822Z,992.00
2023-05-16T05:30:09.063Z,1008.00
2023-05-16T05:31:09.432Z,896.00
2023-05-16T05:32:09.697Z,892.00
2023-05-16T05:33:12.743Z,956.00
2023-05-16T05:34:10.129Z,980.00
2023-05-16T05:35:10.559Z,1000.00
2023-05-16T05:36:10.772Z,1012.00
2023-05-16T05:37:11.117Z,1028.00
2023-05-16T05:38:11.483Z,984.00
2023-05-16T05:39:11.801Z,1016.00
2023-05-16T05:40:12.180Z,988.00
2023-05-16T05:41:12.403Z,1028.00
2023-05-16T05:42:12.779Z,1056.00
2023-05-16T05:43:12.985Z,920.00
2023-05-16T05:44:13.221Z,932.00
2023-05-16T05:45:13.511Z,920.00
2023-05-16T05:46:13.778Z,1008.00
2023-05-16T05:47:14.083Z,1088.00
2023-05-16T05:48:14.339Z,1104.00
2023-05-16T05:49:14.601Z,1136.00
2023-05-16T05:50:14.897Z,1060.00
2023-05-16T05:51:15.186Z,1140.00
2023-05-16T05:52:15.482Z,1452.00
2023-05-16T05:53:15.731Z,1616.00
2023-05-16T05:54:16.072Z,1744.00
2023-05-16T05:55:16.385Z,1904.00
2023-05-16T05:56:16.873Z,1820.00
2023-05-16T05:57:16.953Z,1848.00
2023-05-16T05:58:17.337Z,1724.00
2023-05-16T05:59:18.359Z,1572.00
2023-05-16T06:00:17.824Z,1432.00
2023-05-16T06:01:23.657Z,1508.00
2023-05-16T06:02:55.036Z,1560.00
2023-05-16T06:03:36.582Z,1480.00
2023-05-16T06:04:31.318Z,2148.00
2023-05-16T06:06:47.552Z,1984.00
2023-05-16T06:07:47.084Z,1704.00
2023-05-16T06:08:47.205Z,1612.00
2023-05-16T06:09:47.612Z,1604.00
2023-05-16T06:12:06.133Z,1696.00
2023-05-16T06:13:05.079Z,1444.00
2023-05-16T06:14:05.915Z,1276.00
2023-05-16T06:15:05.314Z,1300.00
2023-05-16T06:16:07.053Z,1368.00
2023-05-16T06:17:07.516Z,1300.00
2023-05-16T06:18:05.698Z,1300.00
2023-05-16T06:19:06.083Z,1412.00
2023-05-16T06:20:06.140Z,1300.00
2023-05-16T06:21:06.360Z,1584.00
2023-05-16T06:22:06.919Z,1688.00
2023-05-16T06:23:07.294Z,1640.00
2023-05-16T06:24:07.461Z,1792.00
2023-05-16T06:25:07.619Z,2168.00
2023-05-16T06:26:07.827Z,2344.00
2023-05-16T06:27:08.182Z,2284.00
2023-05-16T06:28:09.114Z,2156.00
2023-05-16T06:29:08.617Z,2144.00
2023-05-16T06:30:08.900Z,1860.00
2023-05-16T06:31:09.259Z,1920.00
2023-05-16T06:32:12.469Z,2020.00
2023-05-16T06:33:10.016Z,2180.00
2023-05-16T06:34:10.121Z,2124.00
2023-05-16T06:35:10.481Z,2056.00
2023-05-16T06:36:10.716Z,2032.00
2023-05-16T06:37:10.971Z,2160.00
2023-05-16T06:38:11.295Z,2288.00
2023-05-16T06:39:11.579Z,2256.00
2023-05-16T06:40:11.885Z,2008.00
2023-05-16T06:41:12.189Z,1816.00
2023-05-16T06:42:12.416Z,1844.00
2023-05-16T06:43:13.437Z,1880.00
2023-05-16T06:44:12.931Z,1844.00
2023-05-16T06:45:13.295Z,1956.00
2023-05-16T06:46:13.572Z,1936.00
2023-05-16T06:47:13.937Z,2140.00
2023-05-16T06:48:14.803Z,2472.00
2023-05-16T06:49:14.387Z,2612.00
2023-05-16T06:50:15.333Z,2840.00
2023-05-16T06:51:14.929Z,2888.00
2023-05-16T06:52:15.260Z,2868.00
2023-05-16T06:53:15.491Z,2700.00
2023-05-16T06:54:16.471Z,2608.00
2023-05-16T06:55:16.077Z,2904.00
2023-05-16T06:56:16.391Z,3152.00
2023-05-16T06:57:16.695Z,3336.00
2023-05-16T06:58:17.687Z,3584.00
2023-05-16T06:59:17.313Z,3996.00
2023-05-16T07:00:17.560Z,3852.00
2023-05-16T07:01:17.921Z,3940.00
2023-05-16T07:02:18.208Z,3920.00
2023-05-16T07:03:18.562Z,4096.00
2023-05-16T07:04:18.813Z,4396.00
2023-05-16T07:05:19.118Z,4228.00
2023-05-16T07:06:19.451Z,4952.00
2023-05-16T07:07:19.805Z,4892.00
2023-05-16T07:08:20.038Z,4716.00
2023-05-16T07:09:20.406Z,4600.00
2023-05-16T07:10:20.571Z,4224.00
2023-05-16T07:11:21.594Z,3848.00
2023-05-16T07:12:21.207Z,3688.00
2023-05-16T07:13:21.540Z,3548.00
2023-05-16T07:14:21.821Z,3332.00
2023-05-16T07:15:22.061Z,3116.00
2023-05-16T07:16:22.495Z,3336.00
2023-05-16T07:17:22.668Z,3384.00
2023-05-16T07:18:22.942Z,3388.00
2023-05-16T07:19:23.246Z,3632.00
2023-05-16T07:20:23.469Z,3548.00
2023-05-16T07:21:23.713Z,3636.00
2023-05-16T07:22:24.020Z,3604.00
2023-05-16T07:23:24.263Z,3736.00
2023-05-16T07:24:24.489Z,3984.00
2023-05-16T07:25:24.848Z,4824.00
2023-05-16T07:26:24.978Z,5292.00
2023-05-16T07:27:25.243Z,4684.00
2023-05-16T07:28:25.567Z,4436.00
2023-05-16T07:29:25.873Z,4244.00
2023-05-16T07:30:26.142Z,4476.00
2023-05-16T07:31:26.444Z,4572.00
2023-05-16T07:32:26.770Z,4544.00
2023-05-16T07:33:27.024Z,4592.00
2023-05-16T07:34:27.249Z,4372.00
2023-05-16T07:35:27.745Z,4164.00
2023-05-16T07:36:48.966Z,3864.00
2023-05-16T07:37:29.361Z,4504.00
2023-05-16T07:38:28.675Z,4400.00
2023-05-16T07:39:29.767Z,4324.00
2023-05-16T07:40:29.647Z,3836.00
2023-05-16T07:41:29.124Z,3508.00
2023-05-16T07:42:29.487Z,3324.00
2023-05-16T07:43:30.369Z,3052.00
2023-05-16T07:44:29.999Z,3004.00
2023-05-16T07:45:30.878Z,3036.00
2023-05-16T07:46:30.893Z,2832.00
2023-05-16T07:47:51.876Z,2876.00
2023-05-16T07:48:31.048Z,2836.00
2023-05-16T07:49:31.325Z,2892.00
2023-05-16T07:50:31.588Z,2556.00
2023-05-16T07:51:31.866Z,2380.00
2023-05-16T07:52:32.104Z,2468.00
2023-05-16T07:53:32.350Z,2504.00
2023-05-16T07:54:32.588Z,2656.00
2023-05-16T07:55:32.890Z,2944.00
2023-05-16T07:56:33.105Z,3200.00
2023-05-16T07:57:33.364Z,2848.00
2023-05-16T07:58:33.629Z,2748.00
2023-05-16T07:59:33.925Z,2856.00
2023-05-16T08:00:34.246Z,2988.00
2023-05-16T08:01:34.521Z,3252.00
2023-05-16T08:02:34.869Z,3308.00
2023-05-16T08:03:35.024Z,3220.00
2023-05-16T08:04:35.225Z,3396.00
2023-05-16T08:05:35.566Z,3640.00
2023-05-16T08:06:35.813Z,3644.00
2023-05-16T08:07:36.030Z,3416.00
2023-05-16T08:08:36.317Z,3536.00
2023-05-16T08:09:36.568Z,3628.00
2023-05-16T08:10:36.904Z,3512.00
2023-05-16T08:11:37.235Z,3348.00
2023-05-16T08:12:37.562Z,3504.00
2023-05-16T08:13:37.777Z,3552.00
2023-05-16T08:14:38.168Z,3712.00
2023-05-16T08:15:38.439Z,3820.00
2023-05-16T08:16:38.742Z,4112.00
2023-05-16T08:17:39.022Z,4068.00
2023-05-16T08:18:39.322Z,3916.00
2023-05-16T08:19:39.533Z,4068.00
2023-05-16T08:20:39.728Z,4048.00
2023-05-16T08:21:40.070Z,4100.00
2023-05-16T08:22:40.298Z,4076.00
2023-05-16T08:23:40.578Z,3888.00
2023-05-16T08:24:40.816Z,3876.00
2023-05-16T08:25:41.032Z,3992.00
2023-05-16T08:26:41.251Z,4156.00
2023-05-16T08:27:41.608Z,4112.00
2023-05-16T08:28:41.955Z,4276.00
2023-05-16T08:29:42.186Z,4428.00
2023-05-16T08:30:43.398Z,4352.00
2023-05-16T08:31:44.388Z,4300.00
2023-05-16T08:32:43.116Z,4280.00
2023-05-16T08:33:43.327Z,4336.00
2023-05-16T08:34:43.539Z,4604.00
2023-05-16T08:35:43.913Z,4632.00
2023-05-16T08:36:44.118Z,4736.00
2023-05-16T08:37:44.394Z,4648.00
2023-05-16T08:38:44.647Z,4788.00
2023-05-16T08:39:44.905Z,4872.00
2023-05-16T08:40:45.232Z,4628.00
2023-05-16T08:41:45.493Z,4664.00
2023-05-16T08:42:45.718Z,4656.00
2023-05-16T08:43:46.003Z,5012.00
2023-05-16T08:44:46.248Z,5056.00
2023-05-16T08:45:46.483Z,4704.00
2023-05-16T08:46:46.744Z,4636.00
2023-05-16T08:47:46.990Z,4648.00
2023-05-16T08:48:47.227Z,4840.00
2023-05-16T08:49:47.458Z,4304.00
2023-05-16T08:50:48.656Z,4316.00
2023-05-16T08:51:47.946Z,4668.00
2023-05-16T08:52:48.178Z,5028.00
2023-05-16T08:53:48.376Z,4800.00
2023-05-16T08:55:02.053Z,4288.00
2023-05-16T08:55:49.994Z,4008.00
2023-05-16T08:56:49.470Z,3828.00
2023-05-16T08:57:50.423Z,3832.00
2023-05-16T08:58:49.816Z,3996.00
2023-05-16T08:59:50.201Z,3916.00
2023-05-16T09:00:50.371Z,3824.00
2023-05-16T09:01:50.606Z,3600.00
2023-05-16T09:02:50.868Z,3872.00
2023-05-16T09:03:51.111Z,4176.00
2023-05-16T09:04:51.362Z,4032.00
2023-05-16T09:05:51.668Z,4040.00
2023-05-16T09:06:51.880Z,3820.00
2023-05-16T09:07:52.131Z,3656.00
2023-05-16T09:08:52.494Z,3644.00
2023-05-16T09:09:52.839Z,3728.00
2023-05-16T09:10:53.087Z,4008.00
2023-05-16T09:11:53.314Z,4312.00
2023-05-16T09:12:53.534Z,4264.00
2023-05-16T09:13:53.854Z,4736.00
2023-05-16T09:14:54.074Z,4856.00
2023-05-16T09:15:54.378Z,4704.00
2023-05-16T09:16:54.905Z,5364.00
2023-05-16T09:17:54.972Z,4924.00
2023-05-16T09:18:55.258Z,4336.00
2023-05-16T09:19:55.394Z,4468.00
2023-05-16T09:20:55.658Z,4352.00
2023-05-16T09:21:55.916Z,3988.00
2023-05-16T09:22:56.158Z,4316.00
2023-05-16T09:23:56.450Z,4844.00
2023-05-16T09:24:56.799Z,4464.00
2023-05-16T09:25:56.920Z,3868.00
2023-05-16T09:26:57.358Z,3896.00
2023-05-16T09:27:57.493Z,4044.00
2023-05-16T09:28:57.816Z,3916.00
2023-05-16T09:29:58.107Z,3828.00
2023-05-16T09:30:58.400Z,3764.00
2023-05-16T09:31:58.672Z,3700.00
2023-05-16T09:32:59.124Z,3528.00
2023-05-16T09:33:59.284Z,3424.00
2023-05-16T09:34:59.539Z,3300.00
2023-05-16T09:35:59.768Z,3188.00
2023-05-16T09:36:59.986Z,3124.00
2023-05-16T09:38:00.367Z,3116.00
2023-05-16T09:39:00.627Z,3100.00
2023-05-16T09:40:00.960Z,3128.00
2023-05-16T09:41:01.172Z,3152.00
2023-05-16T09:42:01.369Z,3300.00
2023-05-16T09:43:01.753Z,3420.00
2023-05-16T09:44:01.898Z,3468.00
2023-05-16T09:45:02.166Z,3456.00
2023-05-16T09:46:02.825Z,3428.00
2023-05-16T09:47:02.745Z,3464.00
2023-05-16T09:48:03.442Z,3600.00
2023-05-16T09:49:03.242Z,3668.00
2023-05-16T09:50:03.556Z,3488.00
2023-05-16T09:51:06.542Z,3532.00
2023-05-16T09:52:04.144Z,3820.00
2023-05-16T09:53:04.330Z,3860.00
2023-05-16T09:54:04.594Z,3708.00
2023-05-16T09:55:04.817Z,3688.00
2023-05-16T09:56:05.201Z,3708.00
2023-05-16T09:57:05.454Z,3692.00
2023-05-16T09:58:05.732Z,3848.00
2023-05-16T09:59:06.028Z,3820.00
2023-05-16T10:00:06.326Z,3652.00
2023-05-16T10:01:06.710Z,3624.00
2023-05-16T10:02:06.873Z,3568.00
2023-05-16T10:03:07.173Z,3656.00
2023-05-16T10:04:07.619Z,3700.00
2023-05-16T10:05:08.684Z,3800.00
2023-05-16T10:06:08.008Z,3764.00
2023-05-16T10:07:08.368Z,3500.00
2023-05-16T10:08:08.794Z,3352.00
2023-05-16T10:09:08.932Z,3400.00
2023-05-16T10:10:09.136Z,3856.00
2023-05-16T10:11:09.525Z,4268.00
2023-05-16T10:12:09.857Z,4332.00
2023-05-16T10:13:10.134Z,4592.00
2023-05-16T10:14:10.343Z,4808.00
2023-05-16T10:15:10.700Z,5100.00
2023-05-16T10:16:10.972Z,5600.00
2023-05-16T10:17:11.157Z,5740.00
2023-05-16T10:18:11.491Z,5220.00
2023-05-16T10:19:11.939Z,4536.00
2023-05-16T10:20:12.003Z,4108.00
2023-05-16T10:21:12.387Z,3900.00
2023-05-16T10:22:12.611Z,3844.00
2023-05-16T10:23:12.744Z,3968.00
2023-05-16T10:24:13.023Z,3936.00
2023-05-16T10:25:13.187Z,3764.00
2023-05-16T10:26:14.580Z,3968.00
2023-05-16T10:27:13.784Z,4136.00
2023-05-16T10:28:14.098Z,4784.00
2023-05-16T10:29:14.237Z,5284.00
2023-05-16T10:30:14.721Z,5144.00
2023-05-16T10:31:14.982Z,4448.00
2023-05-16T10:32:15.199Z,4584.00
2023-05-16T10:33:15.346Z,5876.00
2023-05-16T10:34:15.579Z,6764.00
2023-05-16T10:35:15.840Z,6396.00
2023-05-16T10:36:16.179Z,6312.00
2023-05-16T10:37:16.378Z,5940.00
2023-05-16T10:38:16.658Z,5896.00
2023-05-16T10:39:16.920Z,6000.00
2023-05-16T10:40:17.277Z,5768.00
2023-05-16T10:41:17.367Z,5556.00
2023-05-16T10:42:17.659Z,5628.00
2023-05-16T10:43:18.803Z,5608.00
2023-05-16T10:44:18.269Z,5404.00
2023-05-16T10:45:18.614Z,5112.00
2023-05-16T10:46:18.974Z,4920.00
2023-05-16T10:47:19.285Z,4960.00
2023-05-16T10:48:28.008Z,5008.00
2023-05-16T10:49:20.023Z,5560.00
2023-05-16T10:50:20.147Z,5908.00
2023-05-16T10:51:20.282Z,6096.00
2023-05-16T10:52:20.607Z,6300.00
2023-05-16T10:53:20.929Z,6628.00
2023-05-16T10:54:21.299Z,6960.00
2023-05-16T10:55:21.546Z,7488.00
2023-05-16T10:56:21.741Z,7920.00
2023-05-16T10:57:22.034Z,8532.00
2023-05-16T10:58:22.315Z,9396.00
2023-05-16T10:59:22.755Z,10188.00
2023-05-16T11:00:22.920Z,10252.00
2023-05-16T11:01:23.442Z,9660.00
2023-05-16T11:02:23.690Z,9368.00
2023-05-16T11:03:23.911Z,8872.00
2023-05-16T11:04:24.188Z,7792.00
2023-05-16T11:05:24.552Z,6792.00
2023-05-16T11:06:25.197Z,6072.00
2023-05-16T11:07:24.888Z,5748.00
2023-05-16T11:08:25.492Z,5392.00
2023-05-16T11:09:25.455Z,5212.00
2023-05-16T11:10:25.711Z,5252.00
2023-05-16T11:11:25.982Z,5248.00
2023-05-16T11:12:27.279Z,5060.00
2023-05-16T11:13:26.514Z,5184.00
2023-05-16T11:14:26.842Z,5320.00
2023-05-16T11:15:27.441Z,5352.00
2023-05-16T11:16:27.532Z,5312.00
2023-05-16T11:17:27.744Z,5340.00
2023-05-16T11:18:27.890Z,5596.00
2023-05-16T11:19:28.085Z,5944.00
2023-05-16T11:20:28.433Z,6272.00
2023-05-16T11:21:28.687Z,6324.00
2023-05-16T11:22:28.977Z,6192.00
2023-05-16T11:23:29.276Z,6100.00
2023-05-16T11:24:29.588Z,6084.00
2023-05-16T11:25:29.768Z,6204.00
2023-05-16T11:26:29.984Z,6472.00
2023-05-16T11:27:30.480Z,6472.00
2023-05-16T11:28:30.580Z,6084.00
2023-05-16T11:29:30.964Z,5668.00
2023-05-16T11:30:31.098Z,5532.00
2023-05-16T11:31:31.389Z,5596.00
2023-05-16T11:32:31.746Z,5616.00
2023-05-16T11:33:31.902Z,6252.00
2023-05-16T11:34:32.184Z,7980.00
2023-05-16T11:35:32.464Z,9896.00
2023-05-16T11:36:32.697Z,9664.00
2023-05-16T11:37:32.997Z,9600.00
2023-05-16T11:38:33.319Z,9652.00
2023-05-16T11:39:33.542Z,9012.00
2023-05-16T11:40:33.809Z,7940.00
2023-05-16T11:41:34.102Z,7568.00
2023-05-16T11:42:34.355Z,7464.00
2023-05-16T11:43:34.595Z,7952.00
2023-05-16T11:44:34.878Z,9276.00
2023-05-16T11:45:35.221Z,10596.00
2023-05-16T11:46:35.545Z,11532.00
2023-05-16T11:47:35.836Z,12280.00
2023-05-16T11:48:36.949Z,11388.00
2023-05-16T11:49:36.365Z,9824.00
2023-05-16T11:50:36.711Z,9012.00
2023-05-16T11:51:37.009Z,8620.00
2023-05-16T11:52:37.252Z,8180.00
2023-05-16T11:53:37.511Z,7228.00
2023-05-16T11:54:37.787Z,6540.00
2023-05-16T11:55:41.867Z,5928.00
2023-05-16T11:56:38.349Z,5596.00
2023-05-16T11:57:38.853Z,5400.00
2023-05-16T11:58:38.956Z,5248.00
2023-05-16T11:59:39.246Z,5160.00
2023-05-16T12:00:39.595Z,5156.00
2023-05-16T12:01:39.849Z,4824.00
2023-05-16T12:02:40.208Z,4608.00
2023-05-16T12:03:40.443Z,4492.00
2023-05-16T12:04:40.850Z,4468.00
2023-05-16T12:05:40.948Z,4604.00
2023-05-16T12:06:41.247Z,5008.00
2023-05-16T12:07:41.516Z,5524.00
2023-05-16T12:08:41.802Z,5288.00
2023-05-16T12:09:42.024Z,5036.00
2023-05-16T12:10:42.289Z,4944.00
2023-05-16T12:11:42.588Z,4936.00
2023-05-16T12:12:42.847Z,5036.00
2023-05-16T12:13:43.161Z,4952.00
2023-05-16T12:14:43.477Z,4720.00
2023-05-16T12:15:43.747Z,4536.00
2023-05-16T12:16:44.276Z,4448.00
2023-05-16T12:17:44.296Z,4556.00
2023-05-16T12:18:44.547Z,4712.00
2023-05-16T12:19:44.775Z,4920.00
2023-05-16T12:20:45.040Z,4744.00
2023-05-16T12:21:45.325Z,4360.00
2023-05-16T12:22:45.625Z,4272.00
2023-05-16T12:23:45.909Z,4404.00
2023-05-16T12:24:46.203Z,4728.00
2023-05-16T12:25:46.490Z,4996.00
2023-05-16T12:26:46.743Z,5072.00
2023-05-16T12:27:47.063Z,5268.00
2023-05-16T12:28:47.321Z,6000.00